Time;durP1;ratioP1;P1;durP2;ratioP2;P2;SDS_P1;SDS_P2;PMS_P1;PMS_P2;Temp;Humidity;BMP_temperature;BMP_pressure;BME280_temperature;BME280_humidity;BME280_pressure;Samples;Min_cycle;Max_cycle;Signal;HPM_P1;HPM_P2
2022/10/25 00:02:23;;;;;;;1.15;0.60;;;14.60;99.90;;;;;;7389665;19;20239;-75
2022/10/25 00:04:49;;;;;;;1.65;0.90;;;14.90;99.90;;;;;;7392705;19;20145;-76
2022/10/25 00:07:15;;;;;;;1.35;0.75;;;14.80;99.90;;;;;;7384991;19;20174;-73
2022/10/25 00:09:41;;;;;;;1.65;1.02;;;14.80;99.90;;;;;;7391415;19;20504;-75
2022/10/25 00:12:07;;;;;;;0.82;0.63;;;14.90;99.90;;;;;;7389598;19;20154;-75
2022/10/25 00:14:33;;;;;;;1.42;0.80;;;15.00;99.90;;;;;;7390655;19;20160;-74
2022/10/25 00:16:59;;;;;;;1.42;0.88;;;15.10;99.90;;;;;;7390189;19;20158;-75
2022/10/25 00:19:25;;;;;;;0.73;0.60;;;14.90;99.90;;;;;;7388212;19;20503;-74
2022/10/25 00:21:51;;;;;;;1.67;1.00;;;14.80;99.90;;;;;;7390559;19;20468;-73
2022/10/25 00:24:17;;;;;;;0.88;0.65;;;14.70;99.90;;;;;;7390385;19;20210;-75
2022/10/25 00:26:43;;;;;;;1.33;0.80;;;14.80;99.90;;;;;;7389098;19;20510;-74
2022/10/25 00:29:09;;;;;;;1.88;0.82;;;14.90;99.90;;;;;;7385021;19;20179;-75
2022/10/25 00:31:37;;;;;;;1.63;0.90;;;14.90;99.90;;;;;;7393029;19;20161;-74
2022/10/25 00:34:04;;;;;;;0.90;0.77;;;14.80;99.90;;;;;;7388691;19;20142;-74
2022/10/25 00:36:29;;;;;;;2.95;0.80;;;14.80;99.90;;;;;;7390169;19;20139;-75
2022/10/25 00:38:56;;;;;;;1.10;0.85;;;14.80;99.90;;;;;;7388268;19;20139;-74
2022/10/25 00:41:27;;;;;;;1.92;0.77;;;14.90;99.90;;;;;;7389797;19;20146;-75
2022/10/25 00:43:56;;;;;;;1.95;0.80;;;14.80;99.90;;;;;;7389308;19;20473;-78
2022/10/25 00:46:25;;;;;;;1.50;0.90;;;14.90;99.90;;;;;;7392173;19;20155;-75
2022/10/25 00:49:12;;;;;;;1.52;0.90;;;14.80;99.90;;;;;;7388244;19;20147;-76
2022/10/25 00:51:52;;;;;;;1.83;0.88;;;14.90;99.90;;;;;;7389524;19;20142;-75
2022/10/25 00:54:32;;;;;;;1.58;1.00;;;14.80;99.90;;;;;;7389403;19;20130;-74
2022/10/25 00:57:03;;;;;;;1.48;0.82;;;14.80;99.90;;;;;;7391336;19;20206;-75
2022/10/25 00:59:29;;;;;;;1.23;0.90;;;14.80;99.90;;;;;;7389426;19;20214;-75
2022/10/25 01:01:55;;;;;;;0.60;0.52;;;14.80;99.90;;;;;;7390395;19;20150;-75
2022/10/25 01:04:25;;;;;;;1.10;0.60;;;14.90;99.90;;;;;;7384995;19;20174;-74
2022/10/25 01:06:52;;;;;;;0.75;0.75;;;14.90;99.90;;;;;;7388769;19;20174;-76
2022/10/25 01:09:28;;;;;;;1.20;0.83;;;15.00;99.90;;;;;;7393270;19;20145;-74
2022/10/25 01:11:54;;;;;;;1.00;0.63;;;14.90;99.90;;;;;;7399002;19;20138;-75
2022/10/25 01:14:20;;;;;;;2.60;1.10;;;14.80;99.90;;;;;;7397244;19;20167;-76
2022/10/25 01:17:17;;;;;;;1.45;0.77;;;14.90;99.90;;;;;;7398671;19;20191;-74
2022/10/25 01:20:01;;;;;;;0.73;0.73;;;14.90;99.90;;;;;;7397385;19;20142;-77
2022/10/25 01:22:51;;;;;;;1.73;0.90;;;14.80;99.90;;;;;;7398921;19;20139;-74
2022/10/25 01:25:41;;;;;;;1.27;0.73;;;14.80;99.90;;;;;;7402593;19;20154;-74
2022/10/25 01:28:40;;;;;;;1.27;0.80;;;14.80;99.90;;;;;;7402391;19;20131;-75
2022/10/25 01:31:37;;;;;;;0.90;0.50;;;14.80;99.90;;;;;;7401801;19;20206;-74
2022/10/25 01:34:16;;;;;;;1.15;0.77;;;14.80;99.90;;;;;;7403924;19;20141;-75
2022/10/25 01:37:05;;;;;;;2.90;0.77;;;14.80;99.90;;;;;;7407197;19;20138;-75
2022/10/25 01:39:53;;;;;;;1.27;1.00;;;14.80;99.90;;;;;;7403835;19;20133;-74
2022/10/25 01:42:29;;;;;;;0.57;0.57;;;14.70;99.90;;;;;;7403706;19;20154;-75
2022/10/25 01:45:05;;;;;;;1.95;0.70;;;14.70;99.90;;;;;;7404258;19;20174;-75
2022/10/25 01:48:08;;;;;;;1.25;0.70;;;14.60;99.90;;;;;;7413385;19;20141;-75
2022/10/25 01:50:38;;;;;;;1.50;0.90;;;14.40;99.90;;;;;;7397079;19;20134;-75
2022/10/25 01:53:04;;;;;;;1.35;0.88;;;14.40;99.90;;;;;;7397169;19;20154;-74
2022/10/25 01:55:36;;;;;;;1.98;0.80;;;14.30;99.90;;;;;;7395138;19;20606;-75
2022/10/25 01:58:16;;;;;;;1.40;0.68;;;14.50;99.90;;;;;;7395279;19;20138;-75
2022/10/25 02:01:15;;;;;;;1.27;0.90;;;14.60;99.90;;;;;;7394618;19;20123;-74
2022/10/25 02:04:05;;;;;;;3.70;1.08;;;14.70;99.90;;;;;;7394516;19;20154;-74
2022/10/25 02:06:53;;;;;;;1.33;0.93;;;14.80;99.90;;;;;;7397323;19;20584;-75
2022/10/25 02:09:31;;;;;;;2.10;1.00;;;14.70;99.90;;;;;;7395666;19;20131;-75
2022/10/25 02:11:59;;;;;;;3.97;1.00;;;14.70;99.90;;;;;;7395561;19;20507;-74
2022/10/25 02:14:34;;;;;;;2.08;0.90;;;14.70;99.90;;;;;;7393501;19;20159;-73
2022/10/25 02:17:09;;;;;;;1.23;0.82;;;14.70;99.90;;;;;;7397011;19;20976;-74
2022/10/25 02:19:50;;;;;;;1.75;1.00;;;14.70;99.90;;;;;;7392738;19;20157;-74
2022/10/25 02:22:19;;;;;;;0.90;0.80;;;14.60;99.90;;;;;;7392804;19;20138;-74
2022/10/25 02:24:47;;;;;;;1.17;0.80;;;14.40;99.90;;;;;;7393649;19;20564;-74
2022/10/25 02:27:14;;;;;;;1.25;0.80;;;14.50;99.90;;;;;;7394183;19;20155;-75
2022/10/25 02:29:41;;;;;;;0.90;0.55;;;14.50;99.90;;;;;;7393412;19;20647;-75
2022/10/25 02:32:07;;;;;;;1.70;0.93;;;14.30;99.90;;;;;;7393189;19;20126;-76
2022/10/25 02:34:33;;;;;;;1.77;1.13;;;14.30;99.90;;;;;;7394782;19;20154;-75
2022/10/25 02:36:59;;;;;;;1.55;0.90;;;14.40;99.90;;;;;;7392711;19;20139;-75
2022/10/25 02:39:27;;;;;;;2.10;1.05;;;14.40;99.90;;;;;;7393089;19;20246;-75
2022/10/25 02:45:15;;;;;;;1.33;0.80;;;14.20;99.90;;;;;;7394801;19;20162;-75
2022/10/25 02:47:41;;;;;;;4.75;1.00;;;14.30;99.90;;;;;;7390570;19;20162;-74
2022/10/25 02:50:07;;;;;;;1.67;0.95;;;14.30;99.90;;;;;;7393719;19;20134;-78
2022/10/25 02:52:33;;;;;;;1.58;0.80;;;14.20;99.90;;;;;;7394117;19;20130;-78
2022/10/25 02:54:59;;;;;;;3.15;0.88;;;14.20;99.90;;;;;;7392261;19;20483;-78
2022/10/25 02:57:24;;;;;;;3.10;0.90;;;14.10;99.90;;;;;;7392243;19;20138;-78
2022/10/25 02:59:50;;;;;;;2.05;0.98;;;14.30;99.90;;;;;;7390185;19;20130;-79
2022/10/25 03:02:16;;;;;;;1.63;0.95;;;14.40;99.90;;;;;;7395209;19;20142;-79
2022/10/25 03:04:41;;;;;;;1.35;0.80;;;14.40;99.90;;;;;;7394685;19;20175;-79
2022/10/25 03:07:07;;;;;;;2.60;1.50;;;14.30;99.90;;;;;;7394797;19;20150;-79
2022/10/25 03:09:33;;;;;;;2.78;1.15;;;14.30;99.90;;;;;;7391656;19;20139;-77
2022/10/25 03:11:58;;;;;;;2.05;0.93;;;14.50;99.90;;;;;;7394673;19;20146;-79
2022/10/25 03:14:24;;;;;;;1.58;1.10;;;14.60;99.90;;;;;;7393904;19;20146;-77
2022/10/25 03:16:50;;;;;;;2.47;1.02;;;14.60;99.90;;;;;;7395576;19;20235;-79
2022/10/25 03:19:16;;;;;;;1.77;0.95;;;14.50;99.90;;;;;;7391854;19;20498;-79
2022/10/25 03:21:44;;;;;;;1.40;1.00;;;14.60;99.90;;;;;;7392683;19;20135;-78
2022/10/25 03:24:10;;;;;;;3.03;1.20;;;14.60;99.90;;;;;;7393342;19;20619;-80
2022/10/25 03:26:36;;;;;;;1.45;0.93;;;14.60;99.90;;;;;;7392552;19;20150;-79
2022/10/25 03:29:02;;;;;;;3.55;1.00;;;14.70;99.90;;;;;;7392606;19;20155;-77
2022/10/25 03:31:28;;;;;;;2.03;1.17;;;14.70;99.90;;;;;;7392393;19;20134;-78
2022/10/25 03:33:53;;;;;;;2.45;1.08;;;14.70;99.90;;;;;;7391988;19;20155;-77
2022/10/25 03:36:19;;;;;;;3.28;1.10;;;14.60;99.90;;;;;;7392928;19;20198;-79
2022/10/25 03:38:45;;;;;;;3.50;1.20;;;14.60;99.90;;;;;;7392318;19;20131;-78
2022/10/25 03:41:10;;;;;;;2.38;1.05;;;14.60;99.90;;;;;;7394179;19;20551;-78
2022/10/25 03:43:36;;;;;;;2.83;1.52;;;14.60;99.90;;;;;;7396342;19;20268;-79
2022/10/25 03:46:02;;;;;;;4.45;1.10;;;14.50;99.90;;;;;;7396654;19;20214;-78
2022/10/25 03:48:28;;;;;;;1.83;1.10;;;14.50;99.90;;;;;;7396847;19;20138;-77
2022/10/25 03:50:54;;;;;;;1.20;1.00;;;14.40;99.90;;;;;;7397735;19;20130;-78
2022/10/25 03:53:20;;;;;;;2.00;1.00;;;14.20;99.90;;;;;;7398765;19;20156;-79
2022/10/25 03:55:45;;;;;;;1.15;1.02;;;14.50;99.90;;;;;;7396024;19;20138;-79
2022/10/25 03:58:11;;;;;;;2.03;0.98;;;14.50;99.90;;;;;;7395540;19;20151;-78
2022/10/25 04:00:37;;;;;;;2.97;1.33;;;14.40;99.90;;;;;;7393587;19;20469;-79
2022/10/25 04:03:03;;;;;;;2.58;1.05;;;14.70;99.90;;;;;;7393869;19;20162;-80
2022/10/25 04:05:30;;;;;;;1.40;1.27;;;14.60;99.90;;;;;;7395064;19;20219;-79
2022/10/25 04:07:56;;;;;;;2.33;1.05;;;14.50;99.90;;;;;;7389470;19;20150;-79
2022/10/25 04:10:21;;;;;;;2.50;1.13;;;14.50;99.90;;;;;;7394134;19;20209;-78
2022/10/25 04:12:48;;;;;;;3.58;1.00;;;14.60;99.90;;;;;;7390346;19;20218;-80
2022/10/25 04:15:14;;;;;;;2.13;1.27;;;14.60;99.90;;;;;;7391199;19;20154;-79
2022/10/25 04:17:39;;;;;;;4.30;1.20;;;14.60;99.90;;;;;;7390151;19;20531;-78
2022/10/25 04:20:06;;;;;;;1.17;1.08;;;14.50;99.90;;;;;;7391685;19;20134;-78
2022/10/25 04:22:32;;;;;;;2.42;0.98;;;14.60;99.90;;;;;;7389472;19;20148;-80
2022/10/25 04:24:58;;;;;;;3.03;1.40;;;14.60;99.90;;;;;;7388510;19;20198;-78
2022/10/25 04:27:24;;;;;;;4.15;1.20;;;14.60;99.90;;;;;;7387937;19;20584;-80
2022/10/25 04:29:50;;;;;;;1.48;1.10;;;14.70;99.90;;;;;;7389112;19;20217;-78
2022/10/25 04:32:16;;;;;;;1.63;1.13;;;14.70;99.90;;;;;;7389627;19;20168;-79
2022/10/25 04:34:41;;;;;;;2.28;1.20;;;14.20;99.90;;;;;;7389003;19;20138;-79
2022/10/25 04:37:07;;;;;;;2.78;0.98;;;14.10;99.90;;;;;;7390243;19;20138;-80
2022/10/25 04:39:34;;;;;;;5.13;1.15;;;14.10;99.90;;;;;;7390375;19;20238;-79
2022/10/25 04:42:00;;;;;;;4.45;1.23;;;14.40;99.90;;;;;;7389128;19;20130;-78
2022/10/25 04:44:25;;;;;;;1.80;1.00;;;14.50;99.90;;;;;;7387819;19;20141;-79
2022/10/25 04:46:51;;;;;;;1.88;1.00;;;14.60;99.90;;;;;;7389268;19;20159;-80
2022/10/25 04:49:17;;;;;;;1.10;0.98;;;14.60;99.90;;;;;;7388698;19;20554;-80
2022/10/25 04:51:43;;;;;;;2.38;1.50;;;14.60;99.90;;;;;;7390335;19;20152;-80
2022/10/25 04:54:11;;;;;;;3.35;1.25;;;14.40;99.90;;;;;;7394553;19;20158;-78
2022/10/25 04:56:37;;;;;;;3.63;1.60;;;14.50;99.90;;;;;;7388642;19;20157;-79
2022/10/25 04:59:03;;;;;;;1.90;1.25;;;14.70;99.90;;;;;;7385886;19;20138;-79
2022/10/25 05:01:29;;;;;;;2.95;1.20;;;14.60;99.90;;;;;;7384313;19;20141;-79
2022/10/25 05:03:55;;;;;;;4.05;1.30;;;14.60;99.90;;;;;;7387008;19;20786;-77
2022/10/25 05:06:27;;;;;;;1.70;1.15;;;14.60;99.90;;;;;;7388539;19;20757;-77
2022/10/25 05:08:53;;;;;;;3.08;1.33;;;14.70;99.90;;;;;;7388990;19;20147;-78
2022/10/25 05:11:22;;;;;;;3.22;1.55;;;14.40;99.90;;;;;;7389986;19;20146;-78
2022/10/25 05:13:48;;;;;;;3.40;1.80;;;14.30;99.90;;;;;;7386328;19;20130;-79
2022/10/25 05:16:20;;;;;;;2.30;1.40;;;14.20;99.90;;;;;;7390046;19;20146;-78
2022/10/25 05:18:46;;;;;;;1.63;1.20;;;14.20;99.90;;;;;;7387726;19;20134;-79
2022/10/25 05:21:13;;;;;;;2.95;1.42;;;14.40;99.90;;;;;;7388591;19;20163;-79
2022/10/25 05:23:39;;;;;;;1.48;1.10;;;14.20;99.90;;;;;;7388296;19;20143;-78
2022/10/25 05:26:10;;;;;;;3.20;1.30;;;14.10;99.90;;;;;;7387301;19;20652;-78
2022/10/25 05:28:40;;;;;;;3.67;2.35;;;14.30;99.90;;;;;;7386612;19;20147;-79
2022/10/25 05:31:09;;;;;;;3.55;1.95;;;14.00;99.90;;;;;;7384456;19;20250;-81
2022/10/25 05:33:35;;;;;;;4.85;1.40;;;14.00;99.90;;;;;;7388452;19;20143;-79
2022/10/25 05:36:02;;;;;;;2.22;1.15;;;14.10;99.90;;;;;;7386426;19;20161;-81
2022/10/25 05:38:28;;;;;;;3.65;2.13;;;14.10;99.90;;;;;;7390322;19;20134;-81
2022/10/25 05:40:59;;;;;;;3.72;1.73;;;14.10;99.90;;;;;;7389839;19;20150;-80
2022/10/25 05:43:26;;;;;;;3.05;1.50;;;14.30;99.90;;;;;;7394346;19;20135;-80
2022/10/25 05:45:59;;;;;;;4.05;1.80;;;14.40;99.90;;;;;;7396979;19;20154;-80
2022/10/25 05:48:25;;;;;;;5.35;2.70;;;14.40;99.90;;;;;;7393386;19;20159;-80
2022/10/25 05:50:52;;;;;;;5.18;2.40;;;14.40;99.90;;;;;;7393125;19;20134;-81
2022/10/25 05:53:18;;;;;;;5.03;1.67;;;14.20;99.90;;;;;;7394493;19;20864;-80
2022/10/25 05:55:44;;;;;;;2.67;1.27;;;14.00;99.90;;;;;;7399587;19;20150;-79
2022/10/25 05:58:10;;;;;;;3.70;1.40;;;13.60;99.90;;;;;;7406948;19;20194;-79
2022/10/25 06:00:35;;;;;;;2.58;1.67;;;13.70;99.90;;;;;;7403428;19;20203;-80
2022/10/25 06:03:02;;;;;;;2.47;1.38;;;13.60;99.90;;;;;;7406759;19;21019;-79
2022/10/25 06:05:28;;;;;;;4.32;2.10;;;13.90;99.90;;;;;;7403947;19;20142;-81
2022/10/25 06:07:55;;;;;;;3.83;1.50;;;14.20;99.90;;;;;;7394423;19;20154;-79
2022/10/25 06:10:21;;;;;;;2.50;1.55;;;14.20;99.90;;;;;;7395917;19;20147;-83
2022/10/25 06:12:47;;;;;;;2.00;1.23;;;14.00;99.90;;;;;;7397269;19;20135;-80
2022/10/25 06:15:12;;;;;;;3.37;1.33;;;14.20;99.90;;;;;;7392819;19;20142;-81
2022/10/25 06:17:38;;;;;;;3.28;1.60;;;14.20;99.90;;;;;;7393465;19;20599;-79
2022/10/25 06:20:05;;;;;;;2.85;1.30;;;14.10;99.90;;;;;;7392801;19;20141;-79
2022/10/25 06:22:34;;;;;;;3.90;1.90;;;14.20;99.90;;;;;;7393112;19;20526;-78
2022/10/25 06:25:00;;;;;;;5.57;1.98;;;14.10;99.90;;;;;;7395518;19;20150;-79
2022/10/25 06:27:26;;;;;;;3.90;1.40;;;14.00;99.90;;;;;;7393814;19;20174;-79
2022/10/25 06:29:53;;;;;;;6.72;1.58;;;14.00;99.90;;;;;;7394303;19;20138;-78
2022/10/25 06:32:22;;;;;;;4.93;1.33;;;14.20;99.90;;;;;;7394545;19;20558;-78
2022/10/25 06:34:49;;;;;;;7.53;1.67;;;14.10;99.90;;;;;;7395178;19;20154;-80
2022/10/25 06:37:15;;;;;;;8.80;4.13;;;14.20;99.90;;;;;;7394326;19;20158;-78
2022/10/25 06:39:40;;;;;;;5.43;2.45;;;14.30;99.90;;;;;;7394275;19;20146;-78
2022/10/25 06:42:06;;;;;;;2.65;1.83;;;14.40;99.90;;;;;;7393634;19;20257;-78
2022/10/25 06:44:32;;;;;;;4.50;1.77;;;14.50;99.90;;;;;;7392239;19;20150;-78
2022/10/25 06:46:59;;;;;;;5.13;1.80;;;14.10;99.90;;;;;;7394167;19;20142;-80
2022/10/25 06:49:26;;;;;;;5.72;2.20;;;14.00;99.90;;;;;;7392409;19;20158;-78
2022/10/25 06:51:52;;;;;;;3.30;1.90;;;14.10;99.90;;;;;;7393487;19;20135;-78
2022/10/25 06:54:18;;;;;;;2.17;1.42;;;13.70;99.90;;;;;;7394523;19;20669;-79
2022/10/25 06:56:44;;;;;;;7.25;2.30;;;13.80;99.90;;;;;;7393803;19;20149;-79
2022/10/25 06:59:10;;;;;;;3.13;1.50;;;13.80;99.90;;;;;;7393495;19;20217;-79
2022/10/25 07:01:35;;;;;;;2.63;1.30;;;13.90;99.90;;;;;;7391809;19;20154;-78
2022/10/25 07:04:04;;;;;;;8.52;5.47;;;14.00;99.90;;;;;;7394534;19;20154;-78
2022/10/25 07:06:34;;;;;;;4.82;2.90;;;14.10;99.90;;;;;;7391553;19;20177;-80
2022/10/25 07:09:00;;;;;;;4.07;2.40;;;14.20;99.90;;;;;;7394366;19;20198;-79
2022/10/25 07:11:28;;;;;;;3.25;1.55;;;14.10;99.90;;;;;;7394087;19;20159;-79
2022/10/25 07:13:59;;;;;;;4.40;1.90;;;14.30;99.90;;;;;;7394867;19;20126;-79
2022/10/25 07:16:26;;;;;;;2.55;1.38;;;14.40;99.90;;;;;;7393849;19;20131;-81
2022/10/25 07:18:56;;;;;;;2.95;1.35;;;14.50;99.90;;;;;;7395664;19;20126;-78
2022/10/25 07:21:22;;;;;;;5.38;1.80;;;14.50;99.90;;;;;;7391327;19;20629;-78
2022/10/25 07:23:49;;;;;;;6.53;3.63;;;14.30;99.90;;;;;;7395084;19;20135;-80
2022/10/25 07:26:22;;;;;;;6.70;1.77;;;14.50;99.90;;;;;;7393725;19;20138;-78
2022/10/25 07:28:52;;;;;;;5.25;2.92;;;14.40;99.90;;;;;;7392973;19;20139;-79
2022/10/25 07:31:28;;;;;;;2.55;1.60;;;14.50;99.90;;;;;;7394589;19;20608;-79
2022/10/25 07:33:58;;;;;;;2.50;1.50;;;14.20;99.90;;;;;;7393239;19;20141;-79
2022/10/25 07:36:24;;;;;;;4.20;2.17;;;14.50;99.90;;;;;;7396146;19;20160;-79
2022/10/25 07:38:50;;;;;;;2.85;1.70;;;14.30;99.90;;;;;;7392917;19;20131;-78
2022/10/25 07:41:16;;;;;;;2.38;1.20;;;14.10;99.90;;;;;;7401532;19;20178;-79
2022/10/25 07:43:42;;;;;;;4.00;2.80;;;14.10;99.90;;;;;;7403054;19;20170;-79
2022/10/25 07:46:08;;;;;;;8.50;1.92;;;14.20;99.90;;;;;;7391985;19;20150;-78
2022/10/25 07:48:34;;;;;;;8.95;5.22;;;14.30;99.90;;;;;;7390876;19;20138;-78
2022/10/25 07:51:04;;;;;;;5.78;3.85;;;14.40;99.90;;;;;;7391217;19;20627;-80
2022/10/25 07:53:30;;;;;;;13.27;4.50;;;14.40;99.90;;;;;;7391537;19;20132;-79
2022/10/25 07:55:56;;;;;;;7.40;3.05;;;14.40;99.90;;;;;;7390721;19;20203;-79
2022/10/25 07:58:22;;;;;;;4.75;2.28;;;14.60;99.90;;;;;;7388898;19;20135;-78
2022/10/25 08:00:48;;;;;;;8.45;4.05;;;14.70;99.90;;;;;;7389370;19;20134;-80
2022/10/25 08:03:15;;;;;;;4.70;2.22;;;14.60;99.90;;;;;;7388933;19;20651;-78
2022/10/25 08:05:45;;;;;;;5.78;2.83;;;14.70;99.90;;;;;;7391244;19;20126;-79
2022/10/25 08:08:12;;;;;;;3.00;1.95;;;14.80;99.90;;;;;;7388811;19;20632;-78
2022/10/25 08:10:39;;;;;;;5.28;1.85;;;15.00;99.90;;;;;;7396389;19;20138;-79
2022/10/25 08:13:06;;;;;;;3.97;1.65;;;15.20;99.90;;;;;;7388948;19;20171;-82
2022/10/25 08:15:34;;;;;;;2.97;1.60;;;15.00;99.90;;;;;;7390242;19;20150;-79
2022/10/25 08:18:01;;;;;;;4.35;1.60;;;14.90;99.90;;;;;;7388856;19;20206;-79
2022/10/25 08:20:28;;;;;;;3.45;1.88;;;15.00;99.90;;;;;;7390989;19;20262;-79
2022/10/25 08:22:57;;;;;;;4.00;1.23;;;15.00;99.90;;;;;;7395673;19;20514;-79
2022/10/25 08:25:24;;;;;;;5.10;1.23;;;15.20;99.90;;;;;;7392901;19;20716;-78
2022/10/25 08:27:52;;;;;;;4.53;1.80;;;15.20;99.90;;;;;;7390912;19;20175;-80
2022/10/25 08:30:19;;;;;;;3.22;1.60;;;15.20;99.90;;;;;;7393775;19;20194;-78
2022/10/25 08:32:45;;;;;;;4.60;1.73;;;15.20;99.90;;;;;;7396804;19;20130;-84
2022/10/25 08:35:11;;;;;;;3.65;1.75;;;15.20;99.90;;;;;;7393807;19;20630;-79
2022/10/25 08:37:37;;;;;;;4.70;1.65;;;15.20;99.90;;;;;;7391684;19;20149;-79
2022/10/25 08:40:05;;;;;;;3.08;1.00;;;15.20;99.90;;;;;;7389091;19;20134;-78
2022/10/25 08:43:03;;;;;;;2.88;1.27;;;15.20;99.90;;;;;;7390215;19;20603;-78
2022/10/25 08:45:45;;;;;;;3.20;1.20;;;15.20;99.90;;;;;;7388180;19;20158;-80
2022/10/25 08:48:19;;;;;;;2.95;1.20;;;15.30;99.90;;;;;;7387635;19;20134;-81
2022/10/25 08:50:49;;;;;;;5.57;1.02;;;15.10;99.90;;;;;;7388503;19;20142;-82
2022/10/25 08:53:36;;;;;;;1.58;0.90;;;15.30;99.90;;;;;;7387759;19;20146;-79
2022/10/25 08:56:02;;;;;;;12.60;5.68;;;15.20;99.90;;;;;;7395835;19;20148;-81
2022/10/25 08:58:34;;;;;;;10.88;4.30;;;15.20;99.90;;;;;;7386701;19;20163;-79
2022/10/25 09:01:08;;;;;;;3.85;1.80;;;15.10;99.90;;;;;;7386069;19;20508;-78
2022/10/25 09:03:33;;;;;;;2.35;1.15;;;15.30;99.90;;;;;;7388079;19;20201;-79
2022/10/25 09:06:02;;;;;;;1.73;1.13;;;15.30;99.90;;;;;;7387851;19;20615;-78
2022/10/25 09:08:57;;;;;;;4.82;1.60;;;15.40;99.90;;;;;;7387761;19;20138;-78
2022/10/25 09:11:59;;;;;;;3.10;1.17;;;15.40;99.90;;;;;;7388194;19;20139;-79
2022/10/25 09:14:46;;;;;;;4.35;1.50;;;15.60;99.90;;;;;;7388944;19;20546;-79
2022/10/25 09:17:18;;;;;;;6.55;2.40;;;15.60;99.90;;;;;;7392128;19;20209;-78
2022/10/25 09:20:03;;;;;;;4.03;1.50;;;15.70;99.90;;;;;;7391362;19;20198;-78
2022/10/25 09:22:34;;;;;;;3.33;1.27;;;15.80;99.90;;;;;;7389722;19;20160;-77
2022/10/25 09:25:07;;;;;;;2.75;1.40;;;16.00;99.90;;;;;;7387847;19;20247;-79
2022/10/25 09:27:42;;;;;;;1.38;0.70;;;16.00;99.90;;;;;;7385983;19;20171;-78
2022/10/25 09:30:10;;;;;;;2.75;1.05;;;16.00;99.90;;;;;;7390775;19;20148;-78
2022/10/25 09:32:45;;;;;;;1.88;0.88;;;16.10;99.90;;;;;;7395544;19;20143;-78
2022/10/25 09:35:16;;;;;;;1.80;1.05;;;16.20;99.90;;;;;;7395032;19;20138;-79
2022/10/25 09:37:48;;;;;;;2.15;1.08;;;16.40;99.90;;;;;;7400323;19;20156;-78
2022/10/25 09:40:19;;;;;;;6.78;1.50;;;16.60;99.90;;;;;;7394285;19;20143;-78
2022/10/25 09:43:05;;;;;;;2.50;0.80;;;16.70;99.90;;;;;;7395796;19;20598;-79
2022/10/25 09:45:54;;;;;;;2.78;0.90;;;16.80;99.90;;;;;;7405778;19;20142;-78
2022/10/25 09:48:45;;;;;;;1.52;0.90;;;17.00;99.90;;;;;;7395971;19;20143;-79
2022/10/25 09:51:36;;;;;;;4.22;1.10;;;17.10;99.90;;;;;;7392557;19;20161;-79
2022/10/25 09:54:14;;;;;;;6.10;3.55;;;17.20;99.90;;;;;;7394777;19;20130;-78
2022/10/25 09:56:40;;;;;;;2.97;1.27;;;17.30;99.90;;;;;;7393560;19;20154;-78
2022/10/25 09:59:12;;;;;;;4.90;1.00;;;17.40;99.90;;;;;;7396608;19;20135;-78
2022/10/25 10:01:39;;;;;;;3.75;1.10;;;17.50;99.90;;;;;;7390700;19;20158;-79
2022/10/25 10:04:35;;;;;;;3.53;0.95;;;17.70;99.90;;;;;;7394370;19;20162;-79
2022/10/25 10:07:26;;;;;;;8.68;1.10;;;17.50;99.90;;;;;;7394186;19;20178;-80
2022/10/25 10:09:57;;;;;;;2.92;1.30;;;17.60;99.90;;;;;;7390588;19;20170;-82
2022/10/25 10:12:52;;;;;;;4.10;1.05;;;17.70;99.90;;;;;;7392905;19;20157;-79
2022/10/25 10:15:23;;;;;;;6.07;1.45;;;17.80;99.90;;;;;;7394125;19;20185;-79
2022/10/25 10:18:20;;;;;;;3.55;0.90;;;17.80;99.90;;;;;;7392134;19;20143;-78
2022/10/25 10:21:16;;;;;;;2.08;0.80;;;17.80;99.90;;;;;;7389980;19;20156;-78
2022/10/25 10:23:55;;;;;;;3.63;1.05;;;17.90;99.90;;;;;;7395434;19;20193;-79
2022/10/25 10:26:35;;;;;;;2.95;1.02;;;18.00;99.90;;;;;;7394488;19;20141;-77
2022/10/25 10:29:15;;;;;;;2.47;1.67;;;17.90;99.90;;;;;;7391232;19;20633;-78
2022/10/25 10:31:47;;;;;;;2.47;1.42;;;18.00;99.90;;;;;;7393383;19;20604;-79
2022/10/25 10:34:27;;;;;;;2.15;0.80;;;18.00;99.90;;;;;;7393156;19;20142;-78
2022/10/25 10:37:15;;;;;;;1.00;0.60;;;18.00;99.90;;;;;;7395296;19;20138;-79
2022/10/25 10:39:48;;;;;;;2.10;0.82;;;18.00;99.90;;;;;;7396906;19;20147;-78
2022/10/25 10:42:20;;;;;;;2.30;0.95;;;18.10;99.90;;;;;;7394463;19;20202;-79
2022/10/25 10:45:09;;;;;;;4.82;1.92;;;18.10;99.90;;;;;;7396105;19;20489;-79
2022/10/25 10:47:53;;;;;;;5.53;2.00;;;18.10;99.90;;;;;;7397246;19;20496;-78
2022/10/25 10:50:21;;;;;;;4.53;0.88;;;18.20;99.90;;;;;;7396910;19;20511;-78
2022/10/25 10:52:47;;;;;;;1.88;0.82;;;18.30;99.90;;;;;;7402019;19;20198;-76
2022/10/25 10:55:19;;;;;;;1.67;0.75;;;18.40;99.90;;;;;;7406636;19;20163;-77
2022/10/25 10:57:45;;;;;;;1.17;0.70;;;18.40;99.90;;;;;;7396576;19;20205;-78
2022/10/25 11:00:21;;;;;;;2.35;1.10;;;18.40;99.90;;;;;;7397546;19;20150;-79
2022/10/25 11:02:47;;;;;;;1.50;1.02;;;18.40;99.90;;;;;;7395390;19;20268;-78
2022/10/25 11:05:25;;;;;;;2.05;0.90;;;18.50;99.90;;;;;;7398573;19;20145;-78
2022/10/25 11:07:59;;;;;;;1.00;0.80;;;18.60;99.90;;;;;;7389302;19;20178;-78
2022/10/25 11:10:36;;;;;;;3.25;1.00;;;18.60;99.90;;;;;;7392628;19;20186;-77
2022/10/25 11:13:16;;;;;;;13.93;8.38;;;18.70;99.90;;;;;;7391379;19;20645;-78
2022/10/25 11:16:16;;;;;;;4.22;1.60;;;18.70;99.90;;;;;;7391142;19;20142;-78
2022/10/25 11:18:52;;;;;;;3.78;0.93;;;18.80;99.90;;;;;;7392463;19;20233;-78
2022/10/25 11:21:52;;;;;;;3.80;0.98;;;18.80;99.90;;;;;;7388988;19;20222;-77
2022/10/25 11:24:27;;;;;;;2.88;1.02;;;18.80;99.90;;;;;;7390800;19;20189;-79
2022/10/25 11:27:07;;;;;;;4.80;1.80;;;18.90;99.90;;;;;;7393531;19;20142;-79
2022/10/25 11:29:39;;;;;;;2.22;1.30;;;19.00;99.90;;;;;;7392466;19;20749;-79
2022/10/25 11:32:37;;;;;;;1.77;1.10;;;19.10;99.90;;;;;;7390619;19;20557;-78
2022/10/25 11:35:28;;;;;;;2.58;1.45;;;19.10;99.90;;;;;;7388347;19;20166;-78
2022/10/25 11:38:13;;;;;;;3.88;1.27;;;19.20;99.90;;;;;;7398965;19;20153;-76
2022/10/25 11:40:45;;;;;;;2.88;1.15;;;19.30;99.90;;;;;;7400377;19;20463;-78
2022/10/25 11:43:31;;;;;;;2.30;0.93;;;19.20;99.90;;;;;;7393791;19;20150;-79
2022/10/25 11:46:34;;;;;;;2.90;1.30;;;19.30;99.90;;;;;;7391702;19;20150;-81
2022/10/25 11:49:23;;;;;;;3.03;1.10;;;19.40;99.90;;;;;;7391471;19;20134;-78
2022/10/25 11:52:25;;;;;;;5.82;0.88;;;19.40;99.90;;;;;;7389485;19;20144;-79
2022/10/25 11:55:30;;;;;;;1.35;0.80;;;19.30;99.90;;;;;;7389142;19;20171;-78
2022/10/25 11:58:23;;;;;;;1.20;0.77;;;19.50;99.90;;;;;;7386073;19;20142;-79
2022/10/25 12:00:54;;;;;;;4.13;0.90;;;19.60;99.90;;;;;;7390782;19;20134;-78
2022/10/25 12:03:40;;;;;;;1.02;0.68;;;19.90;99.90;;;;;;7388695;19;20476;-78
2022/10/25 12:06:28;;;;;;;1.77;0.63;;;19.90;99.90;;;;;;7395557;19;20138;-79
2022/10/25 12:08:57;;;;;;;1.73;0.80;;;19.80;99.90;;;;;;7389328;19;20611;-77
2022/10/25 12:11:33;;;;;;;2.40;1.45;;;19.90;99.90;;;;;;7390975;19;20131;-78
2022/10/25 12:14:03;;;;;;;3.40;0.70;;;20.00;99.90;;;;;;7391102;19;20130;-79
2022/10/25 12:16:34;;;;;;;10.80;1.45;;;20.10;99.90;;;;;;7391337;19;20143;-78
2022/10/25 12:19:24;;;;;;;2.95;0.95;;;20.10;99.90;;;;;;7387783;19;20627;-77
2022/10/25 12:21:51;;;;;;;2.53;0.70;;;20.10;99.90;;;;;;7390124;19;20495;-78
2022/10/25 12:24:21;;;;;;;2.35;0.82;;;20.30;99.90;;;;;;7389768;19;20145;-77
2022/10/25 12:26:50;;;;;;;1.10;0.60;;;20.40;99.90;;;;;;7390111;19;20201;-77
2022/10/25 12:29:37;;;;;;;5.40;0.93;;;20.40;99.90;;;;;;7388034;19;20147;-78
2022/10/25 12:32:12;;;;;;;1.63;0.77;;;20.30;99.90;;;;;;7388444;19;20140;-79
2022/10/25 12:35:00;;;;;;;2.92;1.00;;;20.60;99.90;;;;;;7389269;19;20476;-80
2022/10/25 12:37:45;;;;;;;3.58;1.23;;;20.30;99.90;;;;;;7388747;19;20150;-78
2022/10/25 12:40:17;;;;;;;4.00;1.48;;;20.30;99.90;;;;;;7388581;19;20653;-77
2022/10/25 12:42:47;;;;;;;3.50;1.08;;;20.20;99.90;;;;;;7389948;19;20145;-77
2022/10/25 12:45:22;;;;;;;3.28;1.48;;;20.10;99.90;;;;;;7387278;19;20134;-77
2022/10/25 12:48:27;;;;;;;2.58;1.10;;;20.10;99.90;;;;;;7387366;19;20281;-78
2022/10/25 12:51:08;;;;;;;2.63;1.27;;;20.10;99.90;;;;;;7384464;19;20558;-78
2022/10/25 12:53:59;;;;;;;3.10;1.10;;;20.00;99.90;;;;;;7388872;19;20134;-78
2022/10/25 12:57:08;;;;;;;3.53;1.10;;;19.80;99.90;;;;;;7388534;19;20242;-78
2022/10/25 12:59:39;;;;;;;3.08;1.02;;;19.70;99.90;;;;;;7387339;19;20126;-78
2022/10/25 13:02:17;;;;;;;2.63;0.93;;;19.50;99.90;;;;;;7388225;19;20585;-78
2022/10/25 13:05:21;;;;;;;1.92;0.90;;;19.40;99.90;;;;;;7389291;19;20301;-78
2022/10/25 13:07:49;;;;;;;4.35;1.25;;;19.40;99.90;;;;;;7393142;19;20154;-78
2022/10/25 13:10:21;;;;;;;3.65;1.00;;;19.50;99.90;;;;;;7401882;19;20146;-77
2022/10/25 13:13:15;;;;;;;2.83;1.10;;;19.60;99.90;;;;;;7397246;19;20138;-77
2022/10/25 13:15:46;;;;;;;6.72;1.52;;;19.50;99.90;;;;;;7397460;19;20623;-78
2022/10/25 13:18:45;;;;;;;2.55;0.90;;;19.40;99.90;;;;;;7394480;19;20603;-77